createdAt,value
2022-12-14T06:08:58.499Z,18.48
2022-12-14T06:29:32.451Z,18.65
2022-12-14T06:49:14.601Z,17.58
2022-12-14T06:52:07.582Z,18.05
2022-12-14T06:54:43.746Z,20.05
2022-12-14T06:57:10.908Z,18.70
2022-12-14T06:59:38.189Z,19.77
2022-12-14T07:02:05.634Z,18.30
2022-12-14T07:04:32.825Z,19.08
2022-12-14T07:06:59.991Z,19.25
2022-12-14T07:09:27.149Z,19.25
2022-12-14T07:11:54.341Z,18.42
2022-12-14T07:14:21.513Z,20.90
2022-12-14T07:16:49.218Z,19.17
2022-12-14T07:19:17.445Z,18.85
2022-12-14T07:21:44.589Z,19.67
2022-12-14T07:24:11.768Z,20.20
2022-12-14T07:26:38.993Z,22.90
2022-12-14T07:29:06.641Z,21.38
2022-12-14T07:31:33.894Z,21.25
2022-12-14T07:34:01.119Z,24.08
2022-12-14T07:36:29.420Z,24.67
2022-12-14T07:38:57.300Z,24.13
2022-12-14T07:41:30.418Z,21.98
2022-12-14T07:43:59.653Z,20.75
2022-12-14T07:46:29.337Z,21.38
2022-12-14T07:48:57.610Z,21.00
2022-12-14T07:51:33.219Z,20.10
2022-12-14T07:54:01.346Z,18.88
2022-12-14T07:56:32.392Z,18.95
2022-12-14T07:59:00.784Z,19.60
2022-12-14T08:01:34.016Z,18.25
2022-12-14T08:04:05.841Z,19.02
2022-12-14T08:06:33.726Z,19.73
2022-12-14T08:09:01.126Z,18.77
2022-12-14T08:11:28.721Z,17.98
2022-12-14T08:14:00.943Z,18.85
2022-12-14T08:16:28.702Z,17.35
2022-12-14T08:18:58.896Z,18.50
2022-12-14T08:21:27.569Z,18.35
2022-12-14T08:23:56.025Z,19.25
2022-12-14T08:26:27.359Z,17.80
2022-12-14T08:28:57.307Z,19.48
2022-12-14T08:31:26.174Z,18.98
2022-12-14T08:33:53.705Z,19.10
2022-12-14T08:36:29.053Z,18.25
2022-12-14T08:39:01.503Z,18.48
2022-12-14T08:41:29.394Z,17.88
2022-12-14T08:43:58.489Z,17.88
2022-12-14T08:46:27.831Z,19.35
2022-12-14T08:48:55.724Z,17.95
2022-12-14T08:51:24.084Z,18.65
2022-12-14T08:53:51.820Z,19.70
2022-12-14T08:56:21.367Z,19.38
2022-12-14T08:58:48.472Z,18.58
2022-12-14T09:01:19.549Z,17.85
2022-12-14T09:03:47.513Z,18.23
2022-12-14T09:06:17.157Z,16.85
2022-12-14T09:08:44.517Z,18.52
2022-12-14T09:11:13.727Z,18.10
2022-12-14T09:13:41.769Z,17.58
2022-12-14T09:16:17.342Z,17.65
2022-12-14T09:18:47.950Z,18.77
2022-12-14T09:21:15.541Z,16.85
2022-12-14T09:23:43.132Z,16.50
2022-12-14T09:26:18.607Z,18.33
2022-12-14T09:28:51.262Z,18.08
2022-12-14T09:31:21.300Z,16.75
2022-12-14T09:33:48.668Z,17.85
2022-12-14T09:36:23.187Z,17.25
2022-12-14T09:38:52.400Z,18.67
2022-12-14T09:41:34.917Z,17.60
2022-12-14T09:44:09.630Z,17.80
2022-12-14T09:46:42.969Z,19.13
2022-12-14T09:49:38.670Z,18.33
2022-12-14T09:52:07.222Z,17.93
2022-12-14T09:54:38.625Z,16.83
2022-12-14T09:57:26.097Z,17.65
2022-12-14T09:59:54.624Z,17.65
2022-12-14T10:02:32.878Z,16.73
2022-12-14T10:05:21.655Z,17.02
2022-12-14T10:08:02.580Z,15.45
2022-12-14T10:11:08.642Z,16.25
2022-12-14T10:13:55.662Z,18.55
2022-12-14T10:16:31.304Z,16.65
2022-12-14T10:19:02.704Z,16.23
2022-12-14T10:21:42.265Z,17.50
2022-12-14T10:24:15.318Z,17.83
2022-12-14T10:26:47.096Z,15.40
2022-12-14T10:29:16.403Z,17.70
2022-12-14T10:31:58.682Z,17.08
2022-12-14T10:34:29.664Z,16.70
2022-12-14T10:37:06.895Z,17.27
2022-12-14T10:39:36.570Z,16.58
2022-12-14T10:42:32.038Z,16.17
2022-12-14T10:48:11.448Z,16.38
2022-12-14T10:50:57.059Z,16.73
2022-12-14T10:53:33.443Z,16.25
2022-12-14T10:56:08.792Z,17.63
2022-12-14T10:58:35.972Z,17.60
2022-12-14T11:01:03.260Z,16.52
2022-12-14T11:03:30.791Z,15.27
2022-12-14T11:05:57.943Z,15.98
2022-12-14T11:08:48.804Z,15.02
2022-12-14T11:11:25.953Z,15.27
2022-12-14T11:13:55.349Z,16.83
2022-12-14T11:16:36.610Z,15.98
2022-12-14T11:19:06.645Z,16.88
2022-12-14T11:21:36.341Z,16.85
2022-12-14T11:24:03.977Z,16.70
2022-12-14T11:26:37.210Z,15.43
2022-12-14T11:29:26.371Z,15.02
2022-12-14T11:31:53.576Z,15.90
2022-12-14T11:34:23.512Z,14.40
2022-12-14T11:36:50.770Z,15.40
2022-12-14T11:39:22.737Z,15.95
2022-12-14T11:41:58.791Z,15.73
2022-12-14T11:44:27.657Z,15.63
2022-12-14T11:47:02.275Z,14.75
2022-12-14T11:49:35.735Z,14.20
2022-12-14T11:52:20.196Z,13.48
2022-12-14T11:54:54.371Z,14.85
2022-12-14T11:57:24.711Z,14.73
2022-12-14T11:59:54.499Z,13.80
2022-12-14T12:02:30.398Z,14.52
2022-12-14T12:05:20.747Z,14.45
2022-12-14T12:07:50.609Z,13.38
2022-12-14T12:10:20.999Z,13.68
2022-12-14T12:12:54.293Z,13.35
2022-12-14T12:15:36.403Z,13.68
2022-12-14T12:18:46.442Z,13.98
2022-12-14T12:21:29.341Z,14.23
2022-12-14T12:24:05.243Z,14.85
2022-12-14T12:26:34.994Z,14.55
2022-12-14T12:29:15.440Z,13.27
2022-12-14T12:31:50.486Z,14.63
2022-12-14T12:34:40.696Z,14.57
2022-12-14T12:37:30.502Z,13.68
2022-12-14T12:40:02.397Z,13.98
2022-12-14T12:42:41.394Z,13.73
2022-12-14T12:45:24.851Z,14.00
2022-12-14T12:48:00.775Z,14.10
2022-12-14T12:50:36.087Z,14.05
2022-12-14T12:53:11.349Z,14.38
2022-12-14T12:55:42.669Z,15.20
2022-12-14T12:58:19.246Z,15.15
2022-12-14T13:00:51.536Z,13.63
2022-12-14T13:03:23.868Z,14.45
2022-12-14T13:05:53.324Z,14.80
2022-12-14T13:08:26.699Z,15.07
2022-12-14T13:13:49.002Z,13.27
2022-12-14T13:16:35.209Z,13.60
2022-12-14T13:22:01.827Z,13.68
2022-12-14T13:24:32.592Z,13.63
2022-12-14T13:27:17.891Z,13.23
2022-12-14T13:30:20.559Z,13.10
2022-12-14T13:33:13.170Z,14.23
2022-12-14T13:35:52.726Z,13.18
2022-12-14T13:38:38.256Z,14.63
2022-12-14T13:41:26.541Z,13.57
2022-12-14T13:44:13.520Z,14.60
2022-12-14T13:46:41.693Z,14.02
2022-12-14T13:49:18.719Z,15.27
2022-12-14T13:51:50.297Z,13.93
2022-12-14T13:54:30.590Z,15.30
2022-12-14T13:57:09.109Z,15.93
2022-12-14T13:59:45.242Z,14.70
2022-12-14T14:02:28.007Z,15.88
2022-12-14T14:05:20.239Z,15.32
2022-12-14T14:08:31.133Z,16.25
2022-12-14T14:14:45.008Z,16.23
2022-12-14T14:17:24.341Z,17.15
2022-12-14T14:19:56.327Z,17.15
2022-12-14T14:22:27.486Z,16.60
2022-12-14T14:25:02.492Z,17.30
2022-12-14T14:27:38.697Z,16.45
2022-12-14T14:30:28.929Z,17.10
2022-12-14T14:33:07.610Z,16.92
2022-12-14T14:35:43.807Z,17.02
2022-12-14T14:38:27.829Z,17.00
2022-12-14T14:41:17.444Z,18.27
2022-12-14T14:43:51.880Z,17.88
2022-12-14T14:46:23.142Z,17.45
2022-12-14T14:48:54.391Z,19.27
2022-12-14T14:51:26.302Z,18.17
2022-12-14T14:54:56.567Z,18.23
2022-12-14T14:57:35.884Z,18.42
2022-12-14T15:00:05.193Z,21.40
2022-12-14T15:02:37.983Z,18.90
2022-12-14T15:05:40.307Z,18.27
2022-12-14T15:07:54.599Z,21.45
2022-12-14T15:10:31.133Z,19.42
2022-12-14T15:13:04.149Z,18.85
2022-12-14T15:15:43.837Z,19.70
2022-12-14T15:18:20.433Z,19.38
2022-12-14T15:21:08.189Z,20.88
2022-12-14T15:23:37.862Z,19.10
2022-12-14T15:26:16.581Z,19.73
2022-12-14T15:28:52.950Z,19.75
2022-12-14T15:31:35.021Z,19.63
2022-12-14T15:34:02.683Z,18.55
2022-12-14T15:36:33.620Z,20.15
2022-12-14T15:39:00.840Z,20.10
2022-12-14T15:41:29.869Z,19.48
2022-12-14T15:44:00.027Z,19.77
2022-12-14T15:46:35.090Z,21.42
2022-12-14T15:49:04.957Z,19.80
2022-12-14T15:51:40.753Z,21.90
2022-12-14T15:56:45.938Z,21.20
2022-12-14T15:59:19.793Z,23.80
2022-12-14T16:01:54.300Z,24.65
2022-12-14T16:04:23.696Z,22.52
2022-12-14T16:07:08.581Z,22.25
2022-12-14T16:09:41.394Z,24.38
2022-12-14T16:12:40.894Z,23.15
2022-12-14T16:15:23.966Z,22.88
2022-12-14T16:17:57.511Z,22.73
2022-12-14T16:20:34.166Z,22.50
2022-12-14T16:23:27.715Z,23.83
2022-12-14T16:26:14.194Z,22.30
2022-12-14T16:28:41.582Z,23.58
2022-12-14T16:31:11.746Z,23.52
2022-12-14T16:33:43.194Z,22.80
2022-12-14T16:36:22.307Z,23.83
2022-12-14T18:43:25.771Z,33.35
2022-12-14T19:04:40.641Z,33.75
2022-12-14T20:54:18.802Z,39.67
2022-12-14T20:57:35.708Z,41.15
2022-12-14T21:04:28.043Z,39.10
2022-12-14T21:06:55.289Z,39.60
2022-12-14T21:09:22.494Z,39.40
2022-12-14T21:12:10.179Z,38.83
2022-12-14T21:14:42.393Z,40.03
2022-12-14T21:17:10.023Z,38.58
2022-12-14T21:19:37.413Z,39.55
2022-12-14T21:22:05.768Z,39.63
2022-12-14T22:51:15.092Z,43.78
2022-12-14T22:58:32.247Z,43.53
2022-12-14T23:36:19.753Z,43.88
2022-12-14T23:44:07.789Z,43.95
